Address 0x40e0dcd7024030c7b5e1d474fe95aaf7bb880ad0 14

 

Overview

Balance:
0.075084087745170837 ETH

ETH Value:
$120.64 (@ $1,606.78/ETH)
Txn Hash Method
Block
From
To
Value [Txn Fee]
0x17b389ce19c9ab3fd35dadb9b9b7cfe37cc0c779894749ab6445d81054466944Transfer119295542022-05-12 18:27:41261 days 18 hrs ago0x40e0dcd7024030c7b5e1d474fe95aaf7bb880ad0OUT 0xff970a61a04b1ca14834a43f5de4533ebddb5cc80 ETH0.001200601795 ETH
0x072df5e0991de40508457c3a6ca9fa72dba3b45ef3d0f2d29fab6bada4f81591Transfer111241362022-05-03 19:31:58270 days 17 hrs ago0x40e0dcd7024030c7b5e1d474fe95aaf7bb880ad0OUT 0x9983d8cdeaf7872501628229d311e2f7df396add0.4046 ETH0.000259545741 ETH
0xa426bc034825cbc7cf84da0bf052314306504eb5c71cbc92f71cb217c7b62df80x8033d687111241242022-05-03 19:31:58270 days 17 hrs ago0x40e0dcd7024030c7b5e1d474fe95aaf7bb880ad0OUT0x06c30af8a82aaf9cfd319f8644584276bfbec42f0 ETH0.000311608658 ETH
0x7e85dbbcbffc11b28b998d45a035052d1b8e242ed050cc203c48c79d3ce80a050x8033d687111241172022-05-03 19:31:31270 days 17 hrs ago0x40e0dcd7024030c7b5e1d474fe95aaf7bb880ad0OUT0x06c30af8a82aaf9cfd319f8644584276bfbec42f0 ETH0.000327438515 ETH
0xaa5c0350bb3ef52fbc8a9b61bf728db68145f2fe6889a6bc1a252a967a82fadb0x8033d687111178542022-05-03 17:21:55270 days 19 hrs ago0x40e0dcd7024030c7b5e1d474fe95aaf7bb880ad0OUT0x06c30af8a82aaf9cfd319f8644584276bfbec42f0 ETH0.000314249128 ETH
0xf94ea5ff73f99b919b17a658987b31e60318cbdec6d2f65efd66c35e4443b3b80x8033d687111178482022-05-03 17:21:55270 days 19 hrs ago0x40e0dcd7024030c7b5e1d474fe95aaf7bb880ad0OUT0x06c30af8a82aaf9cfd319f8644584276bfbec42f0 ETH0.000362498232 ETH
0x846d0d47bba883e68281e0c6bda630a4cca7204a162155cb5fda052497d26097Set Signer111067692022-05-03 14:17:32270 days 22 hrs ago0x40e0dcd7024030c7b5e1d474fe95aaf7bb880ad0OUT 0x9983d8cdeaf7872501628229d311e2f7df396add0 ETH0.000334898281 ETH
0x58981ed5b3be834cfc8a119c99c6c0cbb00508fdd88f282bbc7276db3289dc64Set Signer111067592022-05-03 14:17:32270 days 22 hrs ago0x40e0dcd7024030c7b5e1d474fe95aaf7bb880ad0OUT 0x9983d8cdeaf7872501628229d311e2f7df396add0 ETH0.000336653599 ETH
0xf779e0704950e80b1e6e9a06abc036ad4ad30b872fd1d2458c2a3851c877e281Set Signer111067462022-05-03 14:16:29270 days 22 hrs ago0x40e0dcd7024030c7b5e1d474fe95aaf7bb880ad0OUT 0x9983d8cdeaf7872501628229d311e2f7df396add0 ETH0.00033753413 ETH
0x367a974aad5cbe3efd7f6ee6f761c66ac2aa392d126623009589079471bb43e3Upgrade And Call110957142022-05-03 11:22:03271 days 1 hr ago0x40e0dcd7024030c7b5e1d474fe95aaf7bb880ad0OUT 0x961cad906ead6aa183f3d27454a9e763e8b7d3eb0 ETH0.000464293116 ETH
0x28da77bdbea127847368d5c5be8378a55ca30be6e34a21ff12dfc19a2a12675b0x00000000110957082022-05-03 11:22:03271 days 1 hr ago0x40e0dcd7024030c7b5e1d474fe95aaf7bb880ad0OUT 0x3350a9dbad8de3e78be646b87c12ced56c929a840 ETH0.00274900193 ETH
0xbe51b90f043d240ae56d64126d04d8258cd45ac4200bdafce50dede0cef5032e0x00000000110956962022-05-03 11:22:03271 days 1 hr ago0x40e0dcd7024030c7b5e1d474fe95aaf7bb880ad0OUT 0x3350a9dbad8de3e78be646b87c12ced56c929a840 ETH0.008306218449 ETH
0x5747a3c01d400c67bb06807795e913bfb92b55f758040420cd06b995de26142b0x00000000110956862022-05-03 11:22:03271 days 1 hr ago0x40e0dcd7024030c7b5e1d474fe95aaf7bb880ad0OUT 0x3350a9dbad8de3e78be646b87c12ced56c929a840 ETH0.003389002007 ETH
0xd635f05a2a7bf757ef8592f8156be4e1a2304c51317cf9e18a45645dd34be87b0x0000000052833082022-01-31 14:59:18362 days 21 hrs ago0x40e0dcd7024030c7b5e1d474fe95aaf7bb880ad0OUT 0x3350a9dbad8de3e78be646b87c12ced56c929a840 ETH0.004984832501 ETH
0xff154ee0b4793cd021b1bfd6f26ddb54fab13313c7b8a525686909c41e51d6bc0x4b63d0a147395612022-01-17 19:57:48376 days 16 hrs ago0x40e0dcd7024030c7b5e1d474fe95aaf7bb880ad0OUT0x06c30af8a82aaf9cfd319f8644584276bfbec42f0 ETH0.000985967717 ETH
0xb5bc542e39036367ca17fe3e65e5248dac38c3700a4b02ee8b35ad961875c24c0x4b63d0a147395572022-01-17 19:57:48376 days 16 hrs ago0x40e0dcd7024030c7b5e1d474fe95aaf7bb880ad0OUT0x06c30af8a82aaf9cfd319f8644584276bfbec42f0 ETH0.000860419919 ETH
0xf7a85e2b536b97c8f83c3adb6f44977ef0210061945e4a9182361cb012c274cd0x8033d68740422482021-12-23 14:39:47401 days 21 hrs ago0x40e0dcd7024030c7b5e1d474fe95aaf7bb880ad0OUT0xc43af891fa1d0cd4c7e8b097e4cc9236b3e7a6e60 ETH0.000692723755 ETH
0xfa561af19f2d7028028740c7b2962364c82537d4b11f5482bccadcc2378121000x8033d68740422472021-12-23 14:39:47401 days 21 hrs ago0x40e0dcd7024030c7b5e1d474fe95aaf7bb880ad0OUT0xc43af891fa1d0cd4c7e8b097e4cc9236b3e7a6e60 ETH0.000528060551 ETH
0xc8da1aff1c51afbec9a13bd41960ec83bd7303b446750fd85edc4a6f3b40aba60x4b63d0a140419582021-12-23 14:21:09401 days 22 hrs ago0x40e0dcd7024030c7b5e1d474fe95aaf7bb880ad0OUT0x06c30af8a82aaf9cfd319f8644584276bfbec42f0 ETH0.000656607548 ETH
0x411b1dea2f4cc1f5e206ab22fb7244d0532beb3adedac0a7ae055d9c4c2e70fb0x4b63d0a140419562021-12-23 14:21:09401 days 22 hrs ago0x40e0dcd7024030c7b5e1d474fe95aaf7bb880ad0OUT0x06c30af8a82aaf9cfd319f8644584276bfbec42f0 ETH0.000655610561 ETH
0x94f28fca021a7d4ffcc649a2f428198399c3c7936edba70be22b3f452b7087710x4b63d0a140419522021-12-23 14:21:09401 days 22 hrs ago0x40e0dcd7024030c7b5e1d474fe95aaf7bb880ad0OUT0x06c30af8a82aaf9cfd319f8644584276bfbec42f0 ETH0.000654613574 ETH
0x3e7811b8e3960d36ead22f1bf5fa95a1564e01c60bfde23748d9cb710db652f00x4b63d0a140419502021-12-23 14:21:09401 days 22 hrs ago0x40e0dcd7024030c7b5e1d474fe95aaf7bb880ad0OUT0x06c30af8a82aaf9cfd319f8644584276bfbec42f0 ETH0.000655610561 ETH
0xf0ccaae645c7141f0824657af54a2768b48b21efc91c91e43ac88dc9e7e3f4ec0x4b63d0a140419442021-12-23 14:20:23401 days 22 hrs ago0x40e0dcd7024030c7b5e1d474fe95aaf7bb880ad0OUT0x06c30af8a82aaf9cfd319f8644584276bfbec42f0 ETH0.000653618032 ETH
0x67a52efeb09924268c54abe70fd880d1c789f2e30cbf9135c376acac199f6c570xe66007f240415822021-12-23 13:52:49401 days 22 hrs ago0x40e0dcd7024030c7b5e1d474fe95aaf7bb880ad0OUT 0x3350a9dbad8de3e78be646b87c12ced56c929a840 ETH0.011754546418 ETH
0x6cba910d7cb66ed3dfe406fef1cdb85b320922593b9541206fe9d8a09d5680460x8033d68740390142021-12-23 10:42:09402 days 1 hr ago0x40e0dcd7024030c7b5e1d474fe95aaf7bb880ad0OUT0x9280e0ffdfae4ec895fdf4d4978c9e1b869eb7740 ETH0.000534129358 ETH
[ Download CSV Export 
Latest 7 internal transactions
Parent Txn Hash Block From To Value
0x17b389ce19c9ab3fd35dadb9b9b7cfe37cc0c779894749ab6445d81054466944119295542022-05-12 18:27:41261 days 18 hrs ago 0x40e0dcd7024030c7b5e1d474fe95aaf7bb880ad0 0x1efb3f88bc88f03fd1804a5c53b7141bbef5ded80 ETH
0x072df5e0991de40508457c3a6ca9fa72dba3b45ef3d0f2d29fab6bada4f81591111241362022-05-03 19:31:58270 days 17 hrs ago 0x40e0dcd7024030c7b5e1d474fe95aaf7bb880ad0 0x62cd928b16b7a92101c3091f5136fd9bb017870a0.4046 ETH
0xa426bc034825cbc7cf84da0bf052314306504eb5c71cbc92f71cb217c7b62df8111241242022-05-03 19:31:58270 days 17 hrs ago 0x06c30af8a82aaf9cfd319f8644584276bfbec42f0x40e0dcd7024030c7b5e1d474fe95aaf7bb880ad00.4046 ETH
0x846d0d47bba883e68281e0c6bda630a4cca7204a162155cb5fda052497d26097111067692022-05-03 14:17:32270 days 22 hrs ago 0x40e0dcd7024030c7b5e1d474fe95aaf7bb880ad0 0x62cd928b16b7a92101c3091f5136fd9bb017870a0 ETH
0x58981ed5b3be834cfc8a119c99c6c0cbb00508fdd88f282bbc7276db3289dc64111067592022-05-03 14:17:32270 days 22 hrs ago 0x40e0dcd7024030c7b5e1d474fe95aaf7bb880ad0 0x62cd928b16b7a92101c3091f5136fd9bb017870a0 ETH
0xf779e0704950e80b1e6e9a06abc036ad4ad30b872fd1d2458c2a3851c877e281111067462022-05-03 14:16:29270 days 22 hrs ago 0x40e0dcd7024030c7b5e1d474fe95aaf7bb880ad0 0x62cd928b16b7a92101c3091f5136fd9bb017870a0 ETH
0x2681b29917ade7a63b801a0caa7af7bc6f59bdaa12d177776d4ba07dd5bfc6cc36805942021-12-08 17:36:53416 days 18 hrs ago 0x40e0dcd7024030c7b5e1d474fe95aaf7bb880ad0 0x1efb3f88bc88f03fd1804a5c53b7141bbef5ded80 ETH
[ Download CSV Export 
Loading

Contract Name:
0 ETH

Compiler Version
0

Optimization Enabled:
0 ETH

Other Settings:
-NA-
Block Transaction Gas Used Reward
Age Block Fee Address BC Fee Address Voting Power Jailed Incoming
Block Uncle Number Difficulty Gas Used Reward
Loading
Make sure to use the "Vote Down" button for any spammy posts, and the "Vote Up" for interesting conversations.